sensor_id;sensor_type;location;lat;lon;timestamp;P1;durP1;ratioP1;P2;durP2;ratioP2
37063;SDS011;23211;53.912;9.138;2022-10-23T00:01:42;16.33;;;5.68;;
37063;SDS011;23211;53.912;9.138;2022-10-23T00:04:29;15.85;;;7.20;;
37063;SDS011;23211;53.912;9.138;2022-10-23T00:07:14;20.90;;;7.90;;
37063;SDS011;23211;53.912;9.138;2022-10-23T00:10:00;18.63;;;7.00;;
37063;SDS011;23211;53.912;9.138;2022-10-23T00:12:46;21.30;;;7.55;;
37063;SDS011;23211;53.912;9.138;2022-10-23T00:15:33;17.10;;;8.07;;
37063;SDS011;23211;53.912;9.138;2022-10-23T00:18:20;16.52;;;8.05;;
37063;SDS011;23211;53.912;9.138;2022-10-23T00:21:06;20.55;;;8.30;;
37063;SDS011;23211;53.912;9.138;2022-10-23T00:23:53;12.52;;;8.70;;
37063;SDS011;23211;53.912;9.138;2022-10-23T00:26:39;16.45;;;8.02;;
37063;SDS011;23211;53.912;9.138;2022-10-23T00:29:26;12.70;;;7.80;;
37063;SDS011;23211;53.912;9.138;2022-10-23T00:32:13;17.35;;;8.85;;
37063;SDS011;23211;53.912;9.138;2022-10-23T00:34:59;16.60;;;8.43;;
37063;SDS011;23211;53.912;9.138;2022-10-23T00:37:45;14.80;;;8.20;;
37063;SDS011;23211;53.912;9.138;2022-10-23T00:40:30;25.92;;;8.88;;
37063;SDS011;23211;53.912;9.138;2022-10-23T00:43:18;12.23;;;7.75;;
37063;SDS011;23211;53.912;9.138;2022-10-23T00:46:06;17.50;;;8.77;;
37063;SDS011;23211;53.912;9.138;2022-10-23T00:48:51;20.35;;;9.05;;
37063;SDS011;23211;53.912;9.138;2022-10-23T00:51:42;18.65;;;9.57;;
37063;SDS011;23211;53.912;9.138;2022-10-23T00:54:32;16.45;;;8.40;;
37063;SDS011;23211;53.912;9.138;2022-10-23T00:57:20;15.45;;;9.65;;
37063;SDS011;23211;53.912;9.138;2022-10-23T01:00:06;15.77;;;9.70;;
37063;SDS011;23211;53.912;9.138;2022-10-23T01:02:53;14.02;;;9.13;;
37063;SDS011;23211;53.912;9.138;2022-10-23T01:05:48;19.00;;;9.77;;
37063;SDS011;23211;53.912;9.138;2022-10-23T01:11:43;17.05;;;8.60;;
37063;SDS011;23211;53.912;9.138;2022-10-23T01:18:10;16.70;;;9.20;;
37063;SDS011;23211;53.912;9.138;2022-10-23T01:21:21;17.05;;;9.98;;
37063;SDS011;23211;53.912;9.138;2022-10-23T01:24:26;17.58;;;9.52;;
37063;SDS011;23211;53.912;9.138;2022-10-23T01:27:23;14.77;;;8.77;;
37063;SDS011;23211;53.912;9.138;2022-10-23T01:30:15;16.90;;;10.05;;
37063;SDS011;23211;53.912;9.138;2022-10-23T01:33:08;15.93;;;9.20;;
37063;SDS011;23211;53.912;9.138;2022-10-23T01:36:10;18.13;;;9.18;;
37063;SDS011;23211;53.912;9.138;2022-10-23T01:38:59;16.70;;;9.85;;
37063;SDS011;23211;53.912;9.138;2022-10-23T01:41:52;16.15;;;9.75;;
37063;SDS011;23211;53.912;9.138;2022-10-23T01:45:30;16.83;;;9.57;;
37063;SDS011;23211;53.912;9.138;2022-10-23T01:48:03;16.90;;;8.73;;
37063;SDS011;23211;53.912;9.138;2022-10-23T01:50:52;19.58;;;9.18;;
37063;SDS011;23211;53.912;9.138;2022-10-23T01:53:42;18.27;;;9.20;;
37063;SDS011;23211;53.912;9.138;2022-10-23T01:56:33;15.32;;;8.40;;
37063;SDS011;23211;53.912;9.138;2022-10-23T01:59:23;15.90;;;8.73;;
37063;SDS011;23211;53.912;9.138;2022-10-23T02:02:14;15.60;;;9.15;;
37063;SDS011;23211;53.912;9.138;2022-10-23T02:05:08;22.63;;;10.00;;
37063;SDS011;23211;53.912;9.138;2022-10-23T02:08:03;14.82;;;8.85;;
37063;SDS011;23211;53.912;9.138;2022-10-23T02:10:55;17.33;;;9.38;;
37063;SDS011;23211;53.912;9.138;2022-10-23T02:17:08;14.70;;;8.88;;
37063;SDS011;23211;53.912;9.138;2022-10-23T02:20:02;15.77;;;8.23;;
37063;SDS011;23211;53.912;9.138;2022-10-23T02:26:41;14.40;;;8.10;;
37063;SDS011;23211;53.912;9.138;2022-10-23T02:32:40;15.45;;;9.25;;
37063;SDS011;23211;53.912;9.138;2022-10-23T02:38:29;16.40;;;8.13;;
37063;SDS011;23211;53.912;9.138;2022-10-23T02:41:38;12.85;;;9.02;;
37063;SDS011;23211;53.912;9.138;2022-10-23T02:47:21;13.80;;;9.25;;
37063;SDS011;23211;53.912;9.138;2022-10-23T02:50:23;14.93;;;8.75;;
37063;SDS011;23211;53.912;9.138;2022-10-23T02:53:30;14.88;;;9.25;;
37063;SDS011;23211;53.912;9.138;2022-10-23T03:02:39;15.70;;;8.20;;
37063;SDS011;23211;53.912;9.138;2022-10-23T03:05:32;9.95;;;7.47;;
37063;SDS011;23211;53.912;9.138;2022-10-23T03:08:21;16.50;;;8.18;;
37063;SDS011;23211;53.912;9.138;2022-10-23T03:11:07;9.35;;;7.38;;
37063;SDS011;23211;53.912;9.138;2022-10-23T03:13:52;13.80;;;7.57;;
37063;SDS011;23211;53.912;9.138;2022-10-23T03:16:38;17.08;;;8.82;;
37063;SDS011;23211;53.912;9.138;2022-10-23T03:19:24;11.23;;;8.48;;
37063;SDS011;23211;53.912;9.138;2022-10-23T03:22:10;11.88;;;7.43;;
37063;SDS011;23211;53.912;9.138;2022-10-23T03:24:56;11.45;;;7.95;;
37063;SDS011;23211;53.912;9.138;2022-10-23T03:27:42;12.73;;;8.77;;
37063;SDS011;23211;53.912;9.138;2022-10-23T03:30:30;11.98;;;8.43;;
37063;SDS011;23211;53.912;9.138;2022-10-23T03:33:17;9.48;;;7.53;;
37063;SDS011;23211;53.912;9.138;2022-10-23T03:36:03;10.23;;;8.00;;
37063;SDS011;23211;53.912;9.138;2022-10-23T03:38:50;8.38;;;7.30;;
37063;SDS011;23211;53.912;9.138;2022-10-23T03:41:37;12.90;;;7.60;;
37063;SDS011;23211;53.912;9.138;2022-10-23T03:44:23;7.75;;;6.90;;
37063;SDS011;23211;53.912;9.138;2022-10-23T03:47:09;11.75;;;7.53;;
37063;SDS011;23211;53.912;9.138;2022-10-23T03:49:56;7.88;;;7.07;;
37063;SDS011;23211;53.912;9.138;2022-10-23T03:52:42;12.18;;;7.75;;
37063;SDS011;23211;53.912;9.138;2022-10-23T03:55:30;9.00;;;7.32;;
37063;SDS011;23211;53.912;9.138;2022-10-23T03:58:16;9.07;;;6.95;;
37063;SDS011;23211;53.912;9.138;2022-10-23T04:01:02;11.75;;;9.30;;
37063;SDS011;23211;53.912;9.138;2022-10-23T04:03:48;14.75;;;10.10;;
37063;SDS011;23211;53.912;9.138;2022-10-23T04:06:34;15.65;;;12.23;;
37063;SDS011;23211;53.912;9.138;2022-10-23T04:09:20;16.38;;;12.63;;
37063;SDS011;23211;53.912;9.138;2022-10-23T04:12:06;20.50;;;14.05;;
37063;SDS011;23211;53.912;9.138;2022-10-23T04:14:52;25.02;;;13.98;;
37063;SDS011;23211;53.912;9.138;2022-10-23T04:17:38;19.40;;;14.98;;
37063;SDS011;23211;53.912;9.138;2022-10-23T04:20:23;18.02;;;13.40;;
37063;SDS011;23211;53.912;9.138;2022-10-23T04:23:09;16.58;;;12.75;;
37063;SDS011;23211;53.912;9.138;2022-10-23T04:25:56;16.98;;;12.93;;
37063;SDS011;23211;53.912;9.138;2022-10-23T04:28:43;18.05;;;13.20;;
37063;SDS011;23211;53.912;9.138;2022-10-23T04:31:29;18.75;;;13.32;;
37063;SDS011;23211;53.912;9.138;2022-10-23T04:34:15;20.80;;;12.82;;
37063;SDS011;23211;53.912;9.138;2022-10-23T04:37:01;25.90;;;12.77;;
37063;SDS011;23211;53.912;9.138;2022-10-23T04:39:47;59.03;;;12.23;;
37063;SDS011;23211;53.912;9.138;2022-10-23T04:42:33;34.33;;;11.88;;
37063;SDS011;23211;53.912;9.138;2022-10-23T04:45:20;39.65;;;10.48;;
37063;SDS011;23211;53.912;9.138;2022-10-23T04:48:06;50.50;;;11.00;;
37063;SDS011;23211;53.912;9.138;2022-10-23T04:51:18;14.90;;;8.70;;
37063;SDS011;23211;53.912;9.138;2022-10-23T04:54:15;50.97;;;9.60;;
37063;SDS011;23211;53.912;9.138;2022-10-23T04:57:23;23.33;;;8.45;;
37063;SDS011;23211;53.912;9.138;2022-10-23T05:00:18;50.50;;;9.02;;
37063;SDS011;23211;53.912;9.138;2022-10-23T05:03:10;78.82;;;10.07;;
37063;SDS011;23211;53.912;9.138;2022-10-23T05:05:59;162.82;;;10.73;;
37063;SDS011;23211;53.912;9.138;2022-10-23T05:09:02;118.35;;;10.25;;
37063;SDS011;23211;53.912;9.138;2022-10-23T05:11:56;48.28;;;9.65;;
37063;SDS011;23211;53.912;9.138;2022-10-23T05:14:43;25.85;;;8.88;;
37063;SDS011;23211;53.912;9.138;2022-10-23T05:17:33;74.05;;;10.55;;
37063;SDS011;23211;53.912;9.138;2022-10-23T05:20:22;108.90;;;11.80;;
37063;SDS011;23211;53.912;9.138;2022-10-23T05:23:11;58.78;;;10.48;;
37063;SDS011;23211;53.912;9.138;2022-10-23T05:26:09;129.38;;;10.75;;
37063;SDS011;23211;53.912;9.138;2022-10-23T05:28:57;77.88;;;9.90;;
37063;SDS011;23211;53.912;9.138;2022-10-23T05:31:43;115.63;;;11.18;;
37063;SDS011;23211;53.912;9.138;2022-10-23T05:34:31;115.07;;;10.57;;
37063;SDS011;23211;53.912;9.138;2022-10-23T05:37:20;90.40;;;11.32;;
37063;SDS011;23211;53.912;9.138;2022-10-23T05:40:06;30.83;;;9.27;;
37063;SDS011;23211;53.912;9.138;2022-10-23T05:42:55;145.93;;;11.65;;
37063;SDS011;23211;53.912;9.138;2022-10-23T05:45:51;169.93;;;11.68;;
37063;SDS011;23211;53.912;9.138;2022-10-23T05:48:56;44.53;;;10.20;;
37063;SDS011;23211;53.912;9.138;2022-10-23T05:51:55;39.63;;;11.00;;
37063;SDS011;23211;53.912;9.138;2022-10-23T05:55:04;99.75;;;12.02;;
37063;SDS011;23211;53.912;9.138;2022-10-23T05:58:09;39.78;;;10.20;;
37063;SDS011;23211;53.912;9.138;2022-10-23T06:01:16;40.40;;;10.65;;
37063;SDS011;23211;53.912;9.138;2022-10-23T06:04:24;129.90;;;11.90;;
37063;SDS011;23211;53.912;9.138;2022-10-23T06:07:33;114.97;;;13.02;;
37063;SDS011;23211;53.912;9.138;2022-10-23T06:10:20;98.80;;;12.18;;
37063;SDS011;23211;53.912;9.138;2022-10-23T06:13:11;101.05;;;11.27;;
37063;SDS011;23211;53.912;9.138;2022-10-23T06:15:56;127.93;;;12.82;;
37063;SDS011;23211;53.912;9.138;2022-10-23T06:18:44;33.10;;;11.70;;
37063;SDS011;23211;53.912;9.138;2022-10-23T06:21:35;48.53;;;13.38;;
37063;SDS011;23211;53.912;9.138;2022-10-23T06:24:22;19.85;;;11.52;;
37063;SDS011;23211;53.912;9.138;2022-10-23T06:27:13;69.18;;;15.35;;
37063;SDS011;23211;53.912;9.138;2022-10-23T06:30:03;61.75;;;14.90;;
37063;SDS011;23211;53.912;9.138;2022-10-23T06:32:51;23.58;;;15.50;;
37063;SDS011;23211;53.912;9.138;2022-10-23T06:35:39;18.75;;;13.93;;
37063;SDS011;23211;53.912;9.138;2022-10-23T06:38:24;25.35;;;15.20;;
37063;SDS011;23211;53.912;9.138;2022-10-23T06:41:16;15.85;;;13.18;;
37063;SDS011;23211;53.912;9.138;2022-10-23T06:44:07;28.10;;;12.93;;
37063;SDS011;23211;53.912;9.138;2022-10-23T06:47:00;17.92;;;12.38;;
37063;SDS011;23211;53.912;9.138;2022-10-23T06:50:05;30.85;;;11.90;;
37063;SDS011;23211;53.912;9.138;2022-10-23T06:52:51;58.60;;;12.65;;
37063;SDS011;23211;53.912;9.138;2022-10-23T06:55:40;70.97;;;10.95;;
37063;SDS011;23211;53.912;9.138;2022-10-23T06:58:28;16.95;;;9.40;;
37063;SDS011;23211;53.912;9.138;2022-10-23T07:01:21;12.98;;;10.57;;
37063;SDS011;23211;53.912;9.138;2022-10-23T07:04:07;11.77;;;9.52;;
37063;SDS011;23211;53.912;9.138;2022-10-23T07:06:53;16.02;;;11.38;;
37063;SDS011;23211;53.912;9.138;2022-10-23T07:09:45;22.88;;;11.48;;
37063;SDS011;23211;53.912;9.138;2022-10-23T07:12:43;12.45;;;10.35;;
37063;SDS011;23211;53.912;9.138;2022-10-23T07:15:58;14.75;;;12.63;;
37063;SDS011;23211;53.912;9.138;2022-10-23T07:18:54;19.75;;;12.65;;
37063;SDS011;23211;53.912;9.138;2022-10-23T07:21:45;16.88;;;12.57;;
37063;SDS011;23211;53.912;9.138;2022-10-23T07:24:43;20.05;;;13.98;;
37063;SDS011;23211;53.912;9.138;2022-10-23T07:27:55;22.27;;;14.20;;
37063;SDS011;23211;53.912;9.138;2022-10-23T07:30:43;21.70;;;16.08;;
37063;SDS011;23211;53.912;9.138;2022-10-23T07:33:31;22.70;;;16.13;;
37063;SDS011;23211;53.912;9.138;2022-10-23T07:36:25;29.25;;;18.20;;
37063;SDS011;23211;53.912;9.138;2022-10-23T07:39:11;29.23;;;17.35;;
37063;SDS011;23211;53.912;9.138;2022-10-23T07:42:04;24.23;;;16.00;;
37063;SDS011;23211;53.912;9.138;2022-10-23T07:44:50;27.42;;;15.32;;
37063;SDS011;23211;53.912;9.138;2022-10-23T07:47:36;21.02;;;14.13;;
37063;SDS011;23211;53.912;9.138;2022-10-23T07:50:22;24.00;;;14.32;;
37063;SDS011;23211;53.912;9.138;2022-10-23T07:53:18;18.02;;;12.18;;
37063;SDS011;23211;53.912;9.138;2022-10-23T07:56:30;25.63;;;12.40;;
37063;SDS011;23211;53.912;9.138;2022-10-23T07:59:41;17.77;;;10.77;;
37063;SDS011;23211;53.912;9.138;2022-10-23T08:02:29;39.72;;;11.40;;
37063;SDS011;23211;53.912;9.138;2022-10-23T08:05:17;33.33;;;9.52;;
37063;SDS011;23211;53.912;9.138;2022-10-23T08:08:10;15.68;;;9.60;;
37063;SDS011;23211;53.912;9.138;2022-10-23T08:10:59;12.10;;;9.45;;
37063;SDS011;23211;53.912;9.138;2022-10-23T08:13:50;22.55;;;10.68;;
37063;SDS011;23211;53.912;9.138;2022-10-23T08:16:37;38.38;;;11.38;;
37063;SDS011;23211;53.912;9.138;2022-10-23T08:19:55;38.83;;;10.48;;
37063;SDS011;23211;53.912;9.138;2022-10-23T08:22:44;52.28;;;11.45;;
37063;SDS011;23211;53.912;9.138;2022-10-23T08:25:32;22.88;;;10.27;;
37063;SDS011;23211;53.912;9.138;2022-10-23T08:28:18;20.83;;;11.43;;
37063;SDS011;23211;53.912;9.138;2022-10-23T08:31:13;19.92;;;11.18;;
37063;SDS011;23211;53.912;9.138;2022-10-23T08:34:13;15.23;;;11.23;;
37063;SDS011;23211;53.912;9.138;2022-10-23T08:37:01;14.77;;;11.90;;
37063;SDS011;23211;53.912;9.138;2022-10-23T08:39:47;16.05;;;12.02;;
37063;SDS011;23211;53.912;9.138;2022-10-23T08:42:37;15.18;;;11.80;;
37063;SDS011;23211;53.912;9.138;2022-10-23T08:48:17;22.30;;;13.48;;
37063;SDS011;23211;53.912;9.138;2022-10-23T08:51:33;21.55;;;12.07;;
37063;SDS011;23211;53.912;9.138;2022-10-23T08:57:31;20.23;;;11.88;;
37063;SDS011;23211;53.912;9.138;2022-10-23T09:00:21;18.83;;;11.73;;
37063;SDS011;23211;53.912;9.138;2022-10-23T09:03:08;19.70;;;11.45;;
37063;SDS011;23211;53.912;9.138;2022-10-23T09:06:00;19.33;;;10.70;;
37063;SDS011;23211;53.912;9.138;2022-10-23T09:12:06;16.50;;;11.55;;
37063;SDS011;23211;53.912;9.138;2022-10-23T09:15:38;12.63;;;10.45;;
37063;SDS011;23211;53.912;9.138;2022-10-23T09:18:24;13.10;;;10.45;;
37063;SDS011;23211;53.912;9.138;2022-10-23T09:21:10;14.00;;;9.95;;
37063;SDS011;23211;53.912;9.138;2022-10-23T09:23:56;14.82;;;10.18;;
37063;SDS011;23211;53.912;9.138;2022-10-23T09:26:42;13.23;;;9.80;;
37063;SDS011;23211;53.912;9.138;2022-10-23T09:29:33;13.05;;;9.98;;
37063;SDS011;23211;53.912;9.138;2022-10-23T09:32:41;15.15;;;9.18;;
37063;SDS011;23211;53.912;9.138;2022-10-23T09:35:28;12.30;;;9.18;;
37063;SDS011;23211;53.912;9.138;2022-10-23T09:38:28;19.98;;;9.30;;
37063;SDS011;23211;53.912;9.138;2022-10-23T09:41:24;12.45;;;8.88;;
37063;SDS011;23211;53.912;9.138;2022-10-23T09:49:53;17.45;;;9.05;;
37063;SDS011;23211;53.912;9.138;2022-10-23T09:52:41;15.80;;;10.02;;
37063;SDS011;23211;53.912;9.138;2022-10-23T09:55:27;10.85;;;8.50;;
37063;SDS011;23211;53.912;9.138;2022-10-23T09:58:18;16.70;;;9.85;;
37063;SDS011;23211;53.912;9.138;2022-10-23T10:01:19;13.15;;;9.07;;
37063;SDS011;23211;53.912;9.138;2022-10-23T10:04:09;13.73;;;9.07;;
37063;SDS011;23211;53.912;9.138;2022-10-23T10:06:56;15.32;;;9.25;;
37063;SDS011;23211;53.912;9.138;2022-10-23T10:09:42;13.02;;;8.77;;
37063;SDS011;23211;53.912;9.138;2022-10-23T10:15:26;14.95;;;9.18;;
37063;SDS011;23211;53.912;9.138;2022-10-23T10:22:15;15.38;;;8.88;;
37063;SDS011;23211;53.912;9.138;2022-10-23T10:31:40;10.73;;;7.40;;
37063;SDS011;23211;53.912;9.138;2022-10-23T10:34:40;14.05;;;7.93;;
37063;SDS011;23211;53.912;9.138;2022-10-23T10:40:37;13.60;;;7.38;;
37063;SDS011;23211;53.912;9.138;2022-10-23T10:47:11;11.93;;;7.32;;
37063;SDS011;23211;53.912;9.138;2022-10-23T10:50:14;14.68;;;7.45;;
37063;SDS011;23211;53.912;9.138;2022-10-23T10:53:23;14.88;;;7.65;;
37063;SDS011;23211;53.912;9.138;2022-10-23T10:56:32;15.00;;;6.50;;
37063;SDS011;23211;53.912;9.138;2022-10-23T10:59:34;14.02;;;7.53;;
37063;SDS011;23211;53.912;9.138;2022-10-23T11:02:39;10.25;;;6.22;;
37063;SDS011;23211;53.912;9.138;2022-10-23T11:05:31;11.05;;;6.38;;
37063;SDS011;23211;53.912;9.138;2022-10-23T11:08:21;10.50;;;6.68;;
37063;SDS011;23211;53.912;9.138;2022-10-23T11:11:19;10.70;;;6.03;;
37063;SDS011;23211;53.912;9.138;2022-10-23T11:14:21;14.10;;;6.78;;
37063;SDS011;23211;53.912;9.138;2022-10-23T11:17:18;11.80;;;6.38;;
37063;SDS011;23211;53.912;9.138;2022-10-23T11:20:27;13.70;;;6.97;;
37063;SDS011;23211;53.912;9.138;2022-10-23T11:23:25;13.95;;;6.43;;
37063;SDS011;23211;53.912;9.138;2022-10-23T11:35:50;10.18;;;6.00;;
37063;SDS011;23211;53.912;9.138;2022-10-23T11:38:38;14.32;;;6.45;;
37063;SDS011;23211;53.912;9.138;2022-10-23T11:41:26;10.68;;;6.10;;
37063;SDS011;23211;53.912;9.138;2022-10-23T11:44:26;12.55;;;6.28;;
37063;SDS011;23211;53.912;9.138;2022-10-23T11:47:32;13.30;;;6.03;;
37063;SDS011;23211;53.912;9.138;2022-10-23T11:50:30;14.80;;;6.40;;
37063;SDS011;23211;53.912;9.138;2022-10-23T11:53:36;9.75;;;5.68;;
37063;SDS011;23211;53.912;9.138;2022-10-23T11:56:25;9.43;;;5.35;;
37063;SDS011;23211;53.912;9.138;2022-10-23T12:02:26;9.52;;;5.40;;
37063;SDS011;23211;53.912;9.138;2022-10-23T12:05:37;11.25;;;5.68;;
37063;SDS011;23211;53.912;9.138;2022-10-23T12:08:26;10.98;;;5.45;;
37063;SDS011;23211;53.912;9.138;2022-10-23T12:11:23;7.15;;;4.43;;
37063;SDS011;23211;53.912;9.138;2022-10-23T12:14:24;8.85;;;4.78;;
37063;SDS011;23211;53.912;9.138;2022-10-23T12:28:59;10.00;;;4.03;;
37063;SDS011;23211;53.912;9.138;2022-10-23T12:38:38;9.55;;;4.43;;
37063;SDS011;23211;53.912;9.138;2022-10-23T12:41:30;13.70;;;4.30;;
37063;SDS011;23211;53.912;9.138;2022-10-23T12:44:18;9.35;;;4.18;;
37063;SDS011;23211;53.912;9.138;2022-10-23T12:47:04;10.43;;;4.07;;
37063;SDS011;23211;53.912;9.138;2022-10-23T12:49:50;9.77;;;4.13;;
37063;SDS011;23211;53.912;9.138;2022-10-23T12:52:37;8.15;;;4.10;;
37063;SDS011;23211;53.912;9.138;2022-10-23T12:55:24;9.02;;;3.38;;
37063;SDS011;23211;53.912;9.138;2022-10-23T12:58:19;9.70;;;4.47;;
37063;SDS011;23211;53.912;9.138;2022-10-23T13:01:20;7.80;;;4.03;;
37063;SDS011;23211;53.912;9.138;2022-10-23T13:06:55;13.80;;;3.45;;
37063;SDS011;23211;53.912;9.138;2022-10-23T13:09:44;9.20;;;3.33;;
37063;SDS011;23211;53.912;9.138;2022-10-23T13:12:54;11.50;;;3.20;;
37063;SDS011;23211;53.912;9.138;2022-10-23T13:15:43;10.63;;;3.20;;
37063;SDS011;23211;53.912;9.138;2022-10-23T13:18:38;8.48;;;3.15;;
37063;SDS011;23211;53.912;9.138;2022-10-23T13:21:26;8.05;;;3.53;;
37063;SDS011;23211;53.912;9.138;2022-10-23T13:24:19;10.50;;;3.22;;
37063;SDS011;23211;53.912;9.138;2022-10-23T13:27:22;9.80;;;3.08;;
37063;SDS011;23211;53.912;9.138;2022-10-23T13:30:27;11.93;;;3.20;;
37063;SDS011;23211;53.912;9.138;2022-10-23T13:33:20;10.15;;;3.40;;
37063;SDS011;23211;53.912;9.138;2022-10-23T13:39:00;6.43;;;2.78;;
37063;SDS011;23211;53.912;9.138;2022-10-23T13:41:49;10.32;;;2.92;;
37063;SDS011;23211;53.912;9.138;2022-10-23T13:44:36;7.60;;;2.80;;
37063;SDS011;23211;53.912;9.138;2022-10-23T13:47:22;8.70;;;3.17;;
37063;SDS011;23211;53.912;9.138;2022-10-23T13:50:08;7.90;;;3.42;;
37063;SDS011;23211;53.912;9.138;2022-10-23T13:52:55;6.72;;;2.65;;
37063;SDS011;23211;53.912;9.138;2022-10-23T13:55:43;11.48;;;3.67;;
37063;SDS011;23211;53.912;9.138;2022-10-23T13:58:32;11.25;;;3.22;;
37063;SDS011;23211;53.912;9.138;2022-10-23T14:01:28;7.07;;;2.83;;
37063;SDS011;23211;53.912;9.138;2022-10-23T14:04:16;11.05;;;3.22;;
37063;SDS011;23211;53.912;9.138;2022-10-23T14:07:03;9.43;;;2.78;;
37063;SDS011;23211;53.912;9.138;2022-10-23T14:09:49;9.48;;;3.38;;
37063;SDS011;23211;53.912;9.138;2022-10-23T14:12:38;16.45;;;3.22;;
37063;SDS011;23211;53.912;9.138;2022-10-23T14:15:25;9.63;;;3.42;;
37063;SDS011;23211;53.912;9.138;2022-10-23T14:18:11;10.20;;;3.83;;
37063;SDS011;23211;53.912;9.138;2022-10-23T14:21:00;8.07;;;3.53;;
37063;SDS011;23211;53.912;9.138;2022-10-23T14:23:47;9.65;;;3.17;;
37063;SDS011;23211;53.912;9.138;2022-10-23T14:26:34;14.68;;;3.63;;
37063;SDS011;23211;53.912;9.138;2022-10-23T14:29:20;6.95;;;3.75;;
37063;SDS011;23211;53.912;9.138;2022-10-23T14:32:06;5.38;;;3.00;;
37063;SDS011;23211;53.912;9.138;2022-10-23T14:34:52;18.73;;;4.00;;
37063;SDS011;23211;53.912;9.138;2022-10-23T14:37:39;8.45;;;3.63;;
37063;SDS011;23211;53.912;9.138;2022-10-23T14:40:24;7.32;;;3.13;;
37063;SDS011;23211;53.912;9.138;2022-10-23T14:43:10;9.38;;;3.08;;
37063;SDS011;23211;53.912;9.138;2022-10-23T14:45:56;6.35;;;2.90;;
37063;SDS011;23211;53.912;9.138;2022-10-23T14:48:42;8.15;;;3.08;;
37063;SDS011;23211;53.912;9.138;2022-10-23T14:51:28;9.18;;;2.85;;
37063;SDS011;23211;53.912;9.138;2022-10-23T14:54:14;10.55;;;3.30;;
37063;SDS011;23211;53.912;9.138;2022-10-23T14:57:01;14.52;;;3.13;;
37063;SDS011;23211;53.912;9.138;2022-10-23T14:59:47;9.98;;;3.63;;
37063;SDS011;23211;53.912;9.138;2022-10-23T15:02:34;5.43;;;3.15;;
37063;SDS011;23211;53.912;9.138;2022-10-23T15:05:20;12.50;;;3.20;;
37063;SDS011;23211;53.912;9.138;2022-10-23T15:08:05;7.30;;;2.83;;
37063;SDS011;23211;53.912;9.138;2022-10-23T15:10:51;8.63;;;2.97;;
37063;SDS011;23211;53.912;9.138;2022-10-23T15:13:37;13.27;;;2.80;;
37063;SDS011;23211;53.912;9.138;2022-10-23T15:16:23;8.32;;;2.95;;
37063;SDS011;23211;53.912;9.138;2022-10-23T15:19:09;8.73;;;2.80;;
37063;SDS011;23211;53.912;9.138;2022-10-23T15:21:56;15.80;;;3.00;;
37063;SDS011;23211;53.912;9.138;2022-10-23T15:27:32;13.98;;;3.10;;
37063;SDS011;23211;53.912;9.138;2022-10-23T15:30:17;6.43;;;2.88;;
37063;SDS011;23211;53.912;9.138;2022-10-23T15:33:03;5.70;;;2.67;;
37063;SDS011;23211;53.912;9.138;2022-10-23T15:35:49;9.32;;;2.95;;
37063;SDS011;23211;53.912;9.138;2022-10-23T15:38:36;7.28;;;3.30;;
37063;SDS011;23211;53.912;9.138;2022-10-23T15:41:31;9.48;;;3.33;;
37063;SDS011;23211;53.912;9.138;2022-10-23T15:44:19;8.32;;;3.42;;
37063;SDS011;23211;53.912;9.138;2022-10-23T15:47:06;9.77;;;3.55;;
37063;SDS011;23211;53.912;9.138;2022-10-23T15:49:51;8.27;;;3.63;;
37063;SDS011;23211;53.912;9.138;2022-10-23T15:52:37;5.22;;;2.95;;
37063;SDS011;23211;53.912;9.138;2022-10-23T15:55:23;17.80;;;3.25;;
37063;SDS011;23211;53.912;9.138;2022-10-23T15:58:09;10.88;;;3.63;;
37063;SDS011;23211;53.912;9.138;2022-10-23T16:00:55;9.57;;;3.90;;
37063;SDS011;23211;53.912;9.138;2022-10-23T16:03:41;8.43;;;3.70;;
37063;SDS011;23211;53.912;9.138;2022-10-23T16:06:27;7.40;;;3.13;;
37063;SDS011;23211;53.912;9.138;2022-10-23T16:09:13;6.45;;;3.60;;
37063;SDS011;23211;53.912;9.138;2022-10-23T16:11:59;7.13;;;3.63;;
37063;SDS011;23211;53.912;9.138;2022-10-23T16:14:45;10.05;;;3.60;;
37063;SDS011;23211;53.912;9.138;2022-10-23T16:17:31;6.50;;;3.75;;
37063;SDS011;23211;53.912;9.138;2022-10-23T16:20:16;10.52;;;3.42;;
37063;SDS011;23211;53.912;9.138;2022-10-23T16:23:04;7.43;;;4.05;;
37063;SDS011;23211;53.912;9.138;2022-10-23T16:25:50;7.95;;;3.90;;
37063;SDS011;23211;53.912;9.138;2022-10-23T16:28:35;8.82;;;3.70;;
37063;SDS011;23211;53.912;9.138;2022-10-23T16:31:22;14.23;;;3.95;;
37063;SDS011;23211;53.912;9.138;2022-10-23T16:34:09;8.10;;;3.80;;
37063;SDS011;23211;53.912;9.138;2022-10-23T16:36:55;7.50;;;4.03;;
37063;SDS011;23211;53.912;9.138;2022-10-23T16:39:48;6.57;;;3.13;;
37063;SDS011;23211;53.912;9.138;2022-10-23T16:42:52;7.85;;;3.30;;
37063;SDS011;23211;53.912;9.138;2022-10-23T16:46:11;7.75;;;3.05;;
37063;SDS011;23211;53.912;9.138;2022-10-23T16:48:57;11.02;;;3.72;;
37063;SDS011;23211;53.912;9.138;2022-10-23T16:51:43;6.88;;;3.47;;
37063;SDS011;23211;53.912;9.138;2022-10-23T16:54:29;8.65;;;3.40;;
37063;SDS011;23211;53.912;9.138;2022-10-23T16:57:15;8.40;;;3.70;;
37063;SDS011;23211;53.912;9.138;2022-10-23T17:00:00;9.85;;;3.45;;
37063;SDS011;23211;53.912;9.138;2022-10-23T17:02:46;12.68;;;4.38;;
37063;SDS011;23211;53.912;9.138;2022-10-23T17:05:33;8.30;;;3.47;;
37063;SDS011;23211;53.912;9.138;2022-10-23T17:08:19;10.65;;;4.15;;
37063;SDS011;23211;53.912;9.138;2022-10-23T17:11:06;7.53;;;3.50;;
37063;SDS011;23211;53.912;9.138;2022-10-23T17:13:55;6.97;;;3.45;;
37063;SDS011;23211;53.912;9.138;2022-10-23T17:16:47;6.00;;;3.70;;
37063;SDS011;23211;53.912;9.138;2022-10-23T17:19:34;13.25;;;3.92;;
37063;SDS011;23211;53.912;9.138;2022-10-23T17:22:21;11.82;;;4.65;;
37063;SDS011;23211;53.912;9.138;2022-10-23T17:25:07;7.18;;;4.15;;
37063;SDS011;23211;53.912;9.138;2022-10-23T17:27:53;9.00;;;5.07;;
37063;SDS011;23211;53.912;9.138;2022-10-23T17:30:39;7.43;;;3.58;;
37063;SDS011;23211;53.912;9.138;2022-10-23T17:33:25;5.95;;;3.13;;
37063;SDS011;23211;53.912;9.138;2022-10-23T17:36:11;5.95;;;3.30;;
37063;SDS011;23211;53.912;9.138;2022-10-23T17:38:59;11.07;;;4.07;;
37063;SDS011;23211;53.912;9.138;2022-10-23T17:41:46;13.40;;;3.80;;
37063;SDS011;23211;53.912;9.138;2022-10-23T17:44:31;8.98;;;3.88;;
37063;SDS011;23211;53.912;9.138;2022-10-23T17:47:17;5.53;;;3.42;;
37063;SDS011;23211;53.912;9.138;2022-10-23T17:50:03;5.72;;;3.72;;
37063;SDS011;23211;53.912;9.138;2022-10-23T17:52:50;17.02;;;3.78;;
37063;SDS011;23211;53.912;9.138;2022-10-23T17:55:39;10.00;;;4.30;;
37063;SDS011;23211;53.912;9.138;2022-10-23T17:58:26;10.95;;;4.10;;
37063;SDS011;23211;53.912;9.138;2022-10-23T18:01:12;7.32;;;3.40;;
37063;SDS011;23211;53.912;9.138;2022-10-23T18:04:01;5.85;;;3.58;;
37063;SDS011;23211;53.912;9.138;2022-10-23T18:06:49;8.27;;;3.55;;
37063;SDS011;23211;53.912;9.138;2022-10-23T18:09:37;19.52;;;3.95;;
37063;SDS011;23211;53.912;9.138;2022-10-23T18:12:23;12.15;;;4.55;;
37063;SDS011;23211;53.912;9.138;2022-10-23T18:15:09;9.23;;;5.25;;
37063;SDS011;23211;53.912;9.138;2022-10-23T18:17:55;10.52;;;4.35;;
37063;SDS011;23211;53.912;9.138;2022-10-23T18:20:41;6.65;;;3.85;;
37063;SDS011;23211;53.912;9.138;2022-10-23T18:23:27;8.32;;;3.90;;
37063;SDS011;23211;53.912;9.138;2022-10-23T18:26:15;9.95;;;3.53;;
37063;SDS011;23211;53.912;9.138;2022-10-23T18:29:02;14.27;;;4.50;;
37063;SDS011;23211;53.912;9.138;2022-10-23T18:31:51;8.95;;;4.32;;
37063;SDS011;23211;53.912;9.138;2022-10-23T18:34:37;11.48;;;4.13;;
37063;SDS011;23211;53.912;9.138;2022-10-23T18:37:23;11.77;;;4.68;;